sensor_id;sensor_type;location;lat;lon;timestamp;pressure;altitude;pressure_sealevel;temperature;humidity
23433;BME280;41331;45.412;10.992;2023-04-28T00:00:04;101255.38;;;13.66;59.68
23433;BME280;41331;45.412;10.992;2023-04-28T00:02:32;101258.78;;;13.55;60.81
23433;BME280;41331;45.412;10.992;2023-04-28T00:05:00;101251.09;;;13.48;60.12
23433;BME280;41331;45.412;10.992;2023-04-28T00:07:28;101239.78;;;13.58;61.60
23433;BME280;41331;45.412;10.992;2023-04-28T00:09:55;101241.06;;;13.61;62.45
23433;BME280;41331;45.412;10.992;2023-04-28T00:12:23;101243.66;;;13.57;60.44
23433;BME280;41331;45.412;10.992;2023-04-28T00:14:50;101242.72;;;13.53;60.53
23433;BME280;41331;45.412;10.992;2023-04-28T00:17:18;101237.94;;;13.41;61.58
23433;BME280;41331;45.412;10.992;2023-04-28T00:19:45;101238.22;;;13.48;61.36
23433;BME280;41331;45.412;10.992;2023-04-28T00:22:12;101240.63;;;13.50;62.14
23433;BME280;41331;45.412;10.992;2023-04-28T00:24:41;101230.34;;;13.47;62.44
23433;BME280;41331;45.412;10.992;2023-04-28T00:27:08;101222.16;;;13.47;63.07
23433;BME280;41331;45.412;10.992;2023-04-28T00:29:36;101233.94;;;13.30;64.53
23433;BME280;41331;45.412;10.992;2023-04-28T00:32:04;101231.88;;;13.18;64.01
23433;BME280;41331;45.412;10.992;2023-04-28T00:34:33;101230.13;;;13.23;63.99
23433;BME280;41331;45.412;10.992;2023-04-28T00:37:03;101230.59;;;13.25;64.45
23433;BME280;41331;45.412;10.992;2023-04-28T00:39:30;101223.34;;;13.29;64.95
23433;BME280;41331;45.412;10.992;2023-04-28T00:41:58;101237.97;;;13.33;65.56
23433;BME280;41331;45.412;10.992;2023-04-28T00:44:25;101228.94;;;13.41;65.47
23433;BME280;41331;45.412;10.992;2023-04-28T00:46:55;101236.19;;;13.37;67.06
23433;BME280;41331;45.412;10.992;2023-04-28T00:49:24;101230.88;;;13.40;65.74
23433;BME280;41331;45.412;10.992;2023-04-28T00:51:52;101238.44;;;13.35;63.77
23433;BME280;41331;45.412;10.992;2023-04-28T00:54:19;101239.25;;;13.18;62.23
23433;BME280;41331;45.412;10.992;2023-04-28T00:56:47;101235.75;;;13.26;60.53
23433;BME280;41331;45.412;10.992;2023-04-28T00:59:15;101232.66;;;13.19;61.45
23433;BME280;41331;45.412;10.992;2023-04-28T01:01:42;101239.28;;;13.09;61.42
23433;BME280;41331;45.412;10.992;2023-04-28T01:04:10;101234.31;;;13.11;61.88
23433;BME280;41331;45.412;10.992;2023-04-28T01:06:42;101238.19;;;13.10;62.98
23433;BME280;41331;45.412;10.992;2023-04-28T01:09:10;101236.25;;;13.02;63.33
23433;BME280;41331;45.412;10.992;2023-04-28T01:11:37;101237.03;;;13.11;63.61
23433;BME280;41331;45.412;10.992;2023-04-28T01:14:10;101224.03;;;13.00;63.35
23433;BME280;41331;45.412;10.992;2023-04-28T01:16:39;101224.88;;;12.91;64.61
23433;BME280;41331;45.412;10.992;2023-04-28T01:19:12;101221.84;;;12.76;66.09
23433;BME280;41331;45.412;10.992;2023-04-28T01:21:43;101233.25;;;12.86;66.61
23433;BME280;41331;45.412;10.992;2023-04-28T01:24:21;101231.75;;;12.98;65.68
23433;BME280;41331;45.412;10.992;2023-04-28T01:26:49;101228.75;;;12.82;65.80
23433;BME280;41331;45.412;10.992;2023-04-28T01:29:17;101222.78;;;12.80;65.87
23433;BME280;41331;45.412;10.992;2023-04-28T01:31:44;101222.16;;;12.74;66.45
23433;BME280;41331;45.412;10.992;2023-04-28T01:34:11;101224.25;;;12.86;65.84
23433;BME280;41331;45.412;10.992;2023-04-28T01:36:41;101226.00;;;12.90;64.44
23433;BME280;41331;45.412;10.992;2023-04-28T01:39:09;101230.69;;;12.81;65.50
23433;BME280;41331;45.412;10.992;2023-04-28T01:41:45;101231.13;;;12.92;66.58
23433;BME280;41331;45.412;10.992;2023-04-28T01:44:13;101230.34;;;12.91;65.47
23433;BME280;41331;45.412;10.992;2023-04-28T01:46:41;101235.63;;;12.88;67.47
23433;BME280;41331;45.412;10.992;2023-04-28T01:49:08;101228.25;;;12.80;65.98
23433;BME280;41331;45.412;10.992;2023-04-28T01:51:36;101233.88;;;12.83;67.35
23433;BME280;41331;45.412;10.992;2023-04-28T01:54:04;101241.72;;;12.85;67.99
23433;BME280;41331;45.412;10.992;2023-04-28T01:56:31;101240.94;;;12.93;67.27
23433;BME280;41331;45.412;10.992;2023-04-28T01:58:59;101246.41;;;12.93;66.00
23433;BME280;41331;45.412;10.992;2023-04-28T02:01:27;101245.75;;;12.87;67.63
23433;BME280;41331;45.412;10.992;2023-04-28T02:03:54;101245.94;;;12.91;66.50
23433;BME280;41331;45.412;10.992;2023-04-28T02:06:23;101253.97;;;12.79;68.24
23433;BME280;41331;45.412;10.992;2023-04-28T02:08:50;101254.31;;;12.42;68.92
23433;BME280;41331;45.412;10.992;2023-04-28T02:11:18;101264.41;;;12.16;69.88
23433;BME280;41331;45.412;10.992;2023-04-28T02:13:45;101265.31;;;12.03;71.38
23433;BME280;41331;45.412;10.992;2023-04-28T02:16:13;101267.78;;;12.22;71.73
23433;BME280;41331;45.412;10.992;2023-04-28T02:18:41;101261.31;;;12.09;71.83
23433;BME280;41331;45.412;10.992;2023-04-28T02:21:12;101255.41;;;12.15;70.51
23433;BME280;41331;45.412;10.992;2023-04-28T02:23:44;101262.00;;;12.23;71.27
23433;BME280;41331;45.412;10.992;2023-04-28T02:26:12;101252.38;;;12.26;71.78
23433;BME280;41331;45.412;10.992;2023-04-28T02:28:41;101246.59;;;12.36;71.90
23433;BME280;41331;45.412;10.992;2023-04-28T02:31:09;101242.88;;;12.23;72.48
23433;BME280;41331;45.412;10.992;2023-04-28T02:33:37;101258.47;;;12.23;72.34
23433;BME280;41331;45.412;10.992;2023-04-28T02:36:05;101257.16;;;12.03;74.55
23433;BME280;41331;45.412;10.992;2023-04-28T02:38:34;101264.69;;;12.06;74.30
23433;BME280;41331;45.412;10.992;2023-04-28T02:41:03;101255.53;;;12.02;73.96
23433;BME280;41331;45.412;10.992;2023-04-28T02:43:31;101258.56;;;11.91;73.04
23433;BME280;41331;45.412;10.992;2023-04-28T02:45:58;101260.31;;;11.87;72.70
23433;BME280;41331;45.412;10.992;2023-04-28T02:48:26;101258.94;;;11.67;74.88
23433;BME280;41331;45.412;10.992;2023-04-28T02:50:54;101253.44;;;11.50;75.61
23433;BME280;41331;45.412;10.992;2023-04-28T02:53:22;101254.25;;;11.59;76.01
23433;BME280;41331;45.412;10.992;2023-04-28T02:55:49;101251.31;;;11.47;76.29
23433;BME280;41331;45.412;10.992;2023-04-28T02:58:17;101261.09;;;11.48;76.72
23433;BME280;41331;45.412;10.992;2023-04-28T03:00:46;101268.56;;;11.65;76.49
23433;BME280;41331;45.412;10.992;2023-04-28T03:03:14;101268.06;;;11.63;76.04
23433;BME280;41331;45.412;10.992;2023-04-28T03:05:42;101270.06;;;11.40;77.43
23433;BME280;41331;45.412;10.992;2023-04-28T03:08:10;101274.44;;;11.50;77.47
23433;BME280;41331;45.412;10.992;2023-04-28T03:10:37;101279.56;;;11.51;76.81
23433;BME280;41331;45.412;10.992;2023-04-28T03:13:05;101288.22;;;11.45;77.43
23433;BME280;41331;45.412;10.992;2023-04-28T03:15:32;101285.69;;;11.26;78.72
23433;BME280;41331;45.412;10.992;2023-04-28T03:18:00;101287.66;;;11.34;78.13
23433;BME280;41331;45.412;10.992;2023-04-28T03:20:28;101295.56;;;11.44;77.62
23433;BME280;41331;45.412;10.992;2023-04-28T03:22:55;101305.66;;;11.44;76.73
23433;BME280;41331;45.412;10.992;2023-04-28T03:25:23;101295.97;;;11.60;76.00
23433;BME280;41331;45.412;10.992;2023-04-28T03:27:51;101295.88;;;11.43;76.77
23433;BME280;41331;45.412;10.992;2023-04-28T03:30:19;101288.31;;;11.39;77.09
23433;BME280;41331;45.412;10.992;2023-04-28T03:32:47;101279.59;;;11.29;77.65
23433;BME280;41331;45.412;10.992;2023-04-28T03:35:15;101271.06;;;11.22;77.71
23433;BME280;41331;45.412;10.992;2023-04-28T03:37:43;101265.00;;;11.25;78.89
23433;BME280;41331;45.412;10.992;2023-04-28T03:40:11;101266.63;;;11.26;78.19
23433;BME280;41331;45.412;10.992;2023-04-28T03:42:58;101271.28;;;11.34;78.95
23433;BME280;41331;45.412;10.992;2023-04-28T03:45:34;101262.78;;;11.27;78.15
23433;BME280;41331;45.412;10.992;2023-04-28T03:48:01;101259.91;;;11.32;78.45
23433;BME280;41331;45.412;10.992;2023-04-28T03:50:30;101267.56;;;11.21;78.98
23433;BME280;41331;45.412;10.992;2023-04-28T03:52:57;101266.63;;;11.26;78.89
23433;BME280;41331;45.412;10.992;2023-04-28T03:55:24;101273.06;;;11.30;80.25
23433;BME280;41331;45.412;10.992;2023-04-28T03:57:53;101272.88;;;11.26;80.11
23433;BME280;41331;45.412;10.992;2023-04-28T04:00:20;101273.75;;;11.44;81.27
23433;BME280;41331;45.412;10.992;2023-04-28T04:02:51;101270.59;;;11.59;79.18
23433;BME280;41331;45.412;10.992;2023-04-28T04:05:19;101272.66;;;11.54;79.06
23433;BME280;41331;45.412;10.992;2023-04-28T04:07:46;101270.44;;;11.56;78.79
23433;BME280;41331;45.412;10.992;2023-04-28T04:10:14;101269.50;;;11.60;81.63
23433;BME280;41331;45.412;10.992;2023-04-28T04:12:43;101274.25;;;11.46;80.50
23433;BME280;41331;45.412;10.992;2023-04-28T04:15:11;101281.50;;;11.51;81.64
23433;BME280;41331;45.412;10.992;2023-04-28T04:17:43;101277.81;;;11.55;82.03
23433;BME280;41331;45.412;10.992;2023-04-28T04:20:10;101271.44;;;11.60;80.83
23433;BME280;41331;45.412;10.992;2023-04-28T04:22:38;101278.03;;;11.67;81.03
23433;BME280;41331;45.412;10.992;2023-04-28T04:25:05;101288.00;;;11.72;81.38
23433;BME280;41331;45.412;10.992;2023-04-28T04:27:34;101298.94;;;11.81;80.85
23433;BME280;41331;45.412;10.992;2023-04-28T04:30:02;101289.97;;;11.80;79.37
23433;BME280;41331;45.412;10.992;2023-04-28T04:32:30;101294.63;;;11.80;78.14
23433;BME280;41331;45.412;10.992;2023-04-28T04:34:57;101290.09;;;11.75;77.25
23433;BME280;41331;45.412;10.992;2023-04-28T04:37:25;101292.44;;;11.90;79.27
23433;BME280;41331;45.412;10.992;2023-04-28T04:40:02;101293.59;;;12.07;78.65
23433;BME280;41331;45.412;10.992;2023-04-28T04:42:35;101292.50;;;12.16;77.95
23433;BME280;41331;45.412;10.992;2023-04-28T04:45:06;101285.91;;;12.17;76.62
23433;BME280;41331;45.412;10.992;2023-04-28T04:47:35;101277.09;;;12.21;76.51
23433;BME280;41331;45.412;10.992;2023-04-28T04:50:04;101276.94;;;12.26;76.50
23433;BME280;41331;45.412;10.992;2023-04-28T04:52:32;101279.50;;;12.31;77.39
23433;BME280;41331;45.412;10.992;2023-04-28T04:54:59;101278.03;;;12.25;77.94
23433;BME280;41331;45.412;10.992;2023-04-28T04:57:28;101280.63;;;12.21;77.16
23433;BME280;41331;45.412;10.992;2023-04-28T05:00:00;101277.75;;;12.26;78.74
23433;BME280;41331;45.412;10.992;2023-04-28T05:02:29;101271.00;;;12.32;79.26
23433;BME280;41331;45.412;10.992;2023-04-28T05:04:57;101283.19;;;12.35;77.75
23433;BME280;41331;45.412;10.992;2023-04-28T05:07:39;101292.50;;;12.34;78.25
23433;BME280;41331;45.412;10.992;2023-04-28T05:10:08;101286.75;;;12.35;77.90
23433;BME280;41331;45.412;10.992;2023-04-28T05:12:37;101281.44;;;12.39;79.07
23433;BME280;41331;45.412;10.992;2023-04-28T05:15:05;101293.66;;;12.41;79.74
23433;BME280;41331;45.412;10.992;2023-04-28T05:17:37;101292.69;;;12.46;78.28
23433;BME280;41331;45.412;10.992;2023-04-28T05:20:05;101300.06;;;12.54;77.76
23433;BME280;41331;45.412;10.992;2023-04-28T05:22:36;101297.53;;;12.66;77.66
23433;BME280;41331;45.412;10.992;2023-04-28T05:25:03;101301.53;;;12.78;77.87
23433;BME280;41331;45.412;10.992;2023-04-28T05:27:32;101305.56;;;12.80;77.93
23433;BME280;41331;45.412;10.992;2023-04-28T05:29:59;101311.00;;;12.98;77.27
23433;BME280;41331;45.412;10.992;2023-04-28T05:32:27;101320.81;;;12.99;77.27
23433;BME280;41331;45.412;10.992;2023-04-28T05:34:56;101309.41;;;12.96;77.33
23433;BME280;41331;45.412;10.992;2023-04-28T05:37:23;101307.13;;;13.16;78.13
23433;BME280;41331;45.412;10.992;2023-04-28T05:39:51;101308.41;;;13.18;78.42
23433;BME280;41331;45.412;10.992;2023-04-28T05:42:18;101318.69;;;13.30;76.92
23433;BME280;41331;45.412;10.992;2023-04-28T05:44:46;101319.63;;;13.43;77.47
23433;BME280;41331;45.412;10.992;2023-04-28T05:47:13;101315.91;;;13.56;77.03
23433;BME280;41331;45.412;10.992;2023-04-28T05:49:41;101307.38;;;13.58;76.32
23433;BME280;41331;45.412;10.992;2023-04-28T05:52:08;101312.22;;;13.52;74.82
23433;BME280;41331;45.412;10.992;2023-04-28T05:54:35;101295.25;;;13.67;75.80
23433;BME280;41331;45.412;10.992;2023-04-28T05:57:03;101310.97;;;13.79;78.50
23433;BME280;41331;45.412;10.992;2023-04-28T05:59:31;101303.06;;;13.86;77.23
23433;BME280;41331;45.412;10.992;2023-04-28T06:01:59;101314.72;;;14.04;76.39
23433;BME280;41331;45.412;10.992;2023-04-28T06:04:27;101317.56;;;14.16;75.10
23433;BME280;41331;45.412;10.992;2023-04-28T06:06:55;101320.91;;;14.22;76.71
23433;BME280;41331;45.412;10.992;2023-04-28T06:09:23;101320.66;;;14.36;74.37
23433;BME280;41331;45.412;10.992;2023-04-28T06:11:52;101323.06;;;14.37;73.98
23433;BME280;41331;45.412;10.992;2023-04-28T06:14:21;101334.97;;;14.41;73.96
23433;BME280;41331;45.412;10.992;2023-04-28T06:16:49;101341.88;;;14.47;73.26
23433;BME280;41331;45.412;10.992;2023-04-28T06:19:17;101350.66;;;14.62;72.16
23433;BME280;41331;45.412;10.992;2023-04-28T06:21:48;101343.34;;;14.66;69.83
23433;BME280;41331;45.412;10.992;2023-04-28T06:24:19;101335.06;;;14.74;70.77
23433;BME280;41331;45.412;10.992;2023-04-28T06:26:52;101335.56;;;14.76;71.67
23433;BME280;41331;45.412;10.992;2023-04-28T06:29:20;101332.47;;;14.78;70.80
23433;BME280;41331;45.412;10.992;2023-04-28T06:31:50;101316.47;;;14.80;70.27
23433;BME280;41331;45.412;10.992;2023-04-28T06:34:19;101314.94;;;14.70;71.82
23433;BME280;41331;45.412;10.992;2023-04-28T06:36:46;101319.22;;;14.59;73.12
23433;BME280;41331;45.412;10.992;2023-04-28T06:39:14;101320.56;;;14.74;71.38
23433;BME280;41331;45.412;10.992;2023-04-28T06:41:41;101320.38;;;14.79;69.07
23433;BME280;41331;45.412;10.992;2023-04-28T06:44:10;101326.50;;;14.97;68.22
23433;BME280;41331;45.412;10.992;2023-04-28T06:46:38;101336.50;;;15.14;68.66
23433;BME280;41331;45.412;10.992;2023-04-28T06:49:05;101346.00;;;15.16;71.42
23433;BME280;41331;45.412;10.992;2023-04-28T06:51:33;101341.22;;;15.25;70.98
23433;BME280;41331;45.412;10.992;2023-04-28T06:54:00;101344.31;;;15.24;69.00
23433;BME280;41331;45.412;10.992;2023-04-28T06:56:28;101346.47;;;15.18;68.63
23433;BME280;41331;45.412;10.992;2023-04-28T06:58:55;101342.84;;;15.26;70.16
23433;BME280;41331;45.412;10.992;2023-04-28T07:01:24;101347.38;;;15.55;69.39
23433;BME280;41331;45.412;10.992;2023-04-28T07:03:53;101334.28;;;15.73;69.04
23433;BME280;41331;45.412;10.992;2023-04-28T07:06:21;101322.97;;;15.99;66.10
23433;BME280;41331;45.412;10.992;2023-04-28T07:08:49;101322.28;;;16.27;65.15
23433;BME280;41331;45.412;10.992;2023-04-28T07:11:16;101314.69;;;16.48;59.21
23433;BME280;41331;45.412;10.992;2023-04-28T07:13:43;101319.97;;;16.94;59.86
23433;BME280;41331;45.412;10.992;2023-04-28T07:16:15;101317.16;;;16.78;59.04
23433;BME280;41331;45.412;10.992;2023-04-28T07:18:43;101307.16;;;16.86;60.03
23433;BME280;41331;45.412;10.992;2023-04-28T07:21:10;101313.94;;;16.76;58.83
23433;BME280;41331;45.412;10.992;2023-04-28T07:23:38;101312.81;;;16.77;56.59
23433;BME280;41331;45.412;10.992;2023-04-28T07:26:06;101324.72;;;16.56;57.39
23433;BME280;41331;45.412;10.992;2023-04-28T07:28:34;101326.56;;;16.77;58.32
23433;BME280;41331;45.412;10.992;2023-04-28T07:31:01;101325.91;;;16.96;54.65
23433;BME280;41331;45.412;10.992;2023-04-28T07:33:29;101319.34;;;17.28;55.98
23433;BME280;41331;45.412;10.992;2023-04-28T07:35:56;101317.94;;;17.50;54.19
23433;BME280;41331;45.412;10.992;2023-04-28T07:38:24;101324.13;;;17.31;55.82
23433;BME280;41331;45.412;10.992;2023-04-28T07:40:51;101324.59;;;17.33;52.79
23433;BME280;41331;45.412;10.992;2023-04-28T07:43:19;101329.34;;;17.21;48.30
23433;BME280;41331;45.412;10.992;2023-04-28T07:45:48;101322.31;;;17.07;50.16
23433;BME280;41331;45.412;10.992;2023-04-28T07:48:16;101321.59;;;17.11;49.84
23433;BME280;41331;45.412;10.992;2023-04-28T07:50:43;101324.00;;;17.12;48.65
23433;BME280;41331;45.412;10.992;2023-04-28T07:53:11;101317.03;;;17.46;48.24
23433;BME280;41331;45.412;10.992;2023-04-28T07:55:38;101316.78;;;17.51;46.87
23433;BME280;41331;45.412;10.992;2023-04-28T07:58:08;101308.97;;;17.53;47.33
23433;BME280;41331;45.412;10.992;2023-04-28T08:00:35;101315.81;;;17.44;48.58
23433;BME280;41331;45.412;10.992;2023-04-28T08:03:04;101317.66;;;17.55;47.62
23433;BME280;41331;45.412;10.992;2023-04-28T08:05:32;101322.28;;;17.51;46.98
23433;BME280;41331;45.412;10.992;2023-04-28T08:07:59;101321.06;;;17.49;48.42
23433;BME280;41331;45.412;10.992;2023-04-28T08:10:27;101316.88;;;17.55;48.85
23433;BME280;41331;45.412;10.992;2023-04-28T08:12:55;101323.75;;;17.77;47.31
23433;BME280;41331;45.412;10.992;2023-04-28T08:15:22;101315.16;;;17.78;47.63
23433;BME280;41331;45.412;10.992;2023-04-28T08:17:49;101319.13;;;17.81;44.94
23433;BME280;41331;45.412;10.992;2023-04-28T08:20:18;101320.38;;;17.68;45.52
23433;BME280;41331;45.412;10.992;2023-04-28T08:22:51;101318.97;;;17.90;45.83
23433;BME280;41331;45.412;10.992;2023-04-28T08:25:18;101320.25;;;18.47;44.84
23433;BME280;41331;45.412;10.992;2023-04-28T08:27:45;101315.53;;;18.82;43.21
23433;BME280;41331;45.412;10.992;2023-04-28T08:30:13;101317.25;;;19.29;43.72
23433;BME280;41331;45.412;10.992;2023-04-28T08:32:40;101305.34;;;19.48;39.47
23433;BME280;41331;45.412;10.992;2023-04-28T08:35:08;101297.47;;;19.27;42.61
23433;BME280;41331;45.412;10.992;2023-04-28T08:37:36;101295.13;;;19.72;40.61
23433;BME280;41331;45.412;10.992;2023-04-28T08:40:04;101304.09;;;19.65;35.73
23433;BME280;41331;45.412;10.992;2023-04-28T08:42:36;101295.81;;;19.65;36.34
23433;BME280;41331;45.412;10.992;2023-04-28T08:45:04;101283.91;;;19.61;36.61
23433;BME280;41331;45.412;10.992;2023-04-28T08:50:04;101285.03;;;19.14;37.19
23433;BME280;41331;45.412;10.992;2023-04-28T08:52:32;101287.13;;;19.44;39.15
23433;BME280;41331;45.412;10.992;2023-04-28T08:55:05;101286.50;;;19.77;41.02
23433;BME280;41331;45.412;10.992;2023-04-28T08:57:43;101284.88;;;19.07;38.04
23433;BME280;41331;45.412;10.992;2023-04-28T09:00:11;101290.50;;;19.33;34.82
23433;BME280;41331;45.412;10.992;2023-04-28T09:02:39;101297.13;;;19.29;36.67
23433;BME280;41331;45.412;10.992;2023-04-28T09:05:13;101298.56;;;19.65;39.28
23433;BME280;41331;45.412;10.992;2023-04-28T09:07:44;101293.03;;;19.65;38.53
23433;BME280;41331;45.412;10.992;2023-04-28T09:10:20;101286.09;;;20.54;38.82
23433;BME280;41331;45.412;10.992;2023-04-28T09:12:52;101287.81;;;20.66;39.93
23433;BME280;41331;45.412;10.992;2023-04-28T09:15:34;101280.69;;;20.08;38.54
23433;BME280;41331;45.412;10.992;2023-04-28T09:18:04;101287.44;;;19.61;39.16
23433;BME280;41331;45.412;10.992;2023-04-28T09:20:34;101289.41;;;19.61;39.53
23433;BME280;41331;45.412;10.992;2023-04-28T09:23:19;101293.53;;;19.97;37.10
23433;BME280;41331;45.412;10.992;2023-04-28T09:28:28;101276.06;;;19.89;37.30
23433;BME280;41331;45.412;10.992;2023-04-28T09:30:55;101281.28;;;19.95;36.03
23433;BME280;41331;45.412;10.992;2023-04-28T09:33:23;101275.22;;;20.12;36.71
23433;BME280;41331;45.412;10.992;2023-04-28T09:35:51;101276.59;;;20.25;36.71
23433;BME280;41331;45.412;10.992;2023-04-28T09:38:22;101284.00;;;20.48;38.41
23433;BME280;41331;45.412;10.992;2023-04-28T09:41:00;101294.34;;;20.51;35.44
23433;BME280;41331;45.412;10.992;2023-04-28T09:43:32;101294.31;;;21.14;35.91
23433;BME280;41331;45.412;10.992;2023-04-28T09:46:01;101296.41;;;21.28;34.40
23433;BME280;41331;45.412;10.992;2023-04-28T09:48:31;101287.84;;;21.40;32.06
23433;BME280;41331;45.412;10.992;2023-04-28T09:51:00;101280.34;;;21.41;34.08
23433;BME280;41331;45.412;10.992;2023-04-28T09:53:29;101287.88;;;21.92;35.87
23433;BME280;41331;45.412;10.992;2023-04-28T09:55:58;101277.22;;;21.97;34.55
23433;BME280;41331;45.412;10.992;2023-04-28T09:58:28;101279.72;;;21.62;34.19
23433;BME280;41331;45.412;10.992;2023-04-28T10:00:58;101272.22;;;22.17;35.45
23433;BME280;41331;45.412;10.992;2023-04-28T10:03:27;101272.44;;;22.60;34.98
23433;BME280;41331;45.412;10.992;2023-04-28T10:05:57;101257.41;;;21.95;35.36
23433;BME280;41331;45.412;10.992;2023-04-28T10:08:25;101261.66;;;22.41;37.57
23433;BME280;41331;45.412;10.992;2023-04-28T10:10:54;101248.28;;;22.64;38.75
23433;BME280;41331;45.412;10.992;2023-04-28T10:13:23;101244.78;;;22.89;36.38
23433;BME280;41331;45.412;10.992;2023-04-28T10:15:50;101239.06;;;22.42;35.36
23433;BME280;41331;45.412;10.992;2023-04-28T10:18:22;101233.00;;;22.12;37.16
23433;BME280;41331;45.412;10.992;2023-04-28T10:21:00;101240.19;;;22.27;34.05
23433;BME280;41331;45.412;10.992;2023-04-28T10:23:46;101232.44;;;22.79;33.96
23433;BME280;41331;45.412;10.992;2023-04-28T10:26:22;101224.13;;;22.75;32.37
23433;BME280;41331;45.412;10.992;2023-04-28T10:28:53;101215.38;;;22.59;31.97
23433;BME280;41331;45.412;10.992;2023-04-28T10:31:21;101219.03;;;22.01;31.83
23433;BME280;41331;45.412;10.992;2023-04-28T10:33:49;101208.97;;;22.41;31.88
23433;BME280;41331;45.412;10.992;2023-04-28T10:39:25;101209.84;;;22.70;30.61
23433;BME280;41331;45.412;10.992;2023-04-28T10:41:53;101199.16;;;22.75;30.12
23433;BME280;41331;45.412;10.992;2023-04-28T10:47:09;101197.91;;;22.44;31.80
23433;BME280;41331;45.412;10.992;2023-04-28T10:52:47;101183.81;;;22.02;31.65
23433;BME280;41331;45.412;10.992;2023-04-28T10:55:35;101182.81;;;22.35;32.72
23433;BME280;41331;45.412;10.992;2023-04-28T11:00:53;101187.22;;;22.50;31.10
23433;BME280;41331;45.412;10.992;2023-04-28T11:03:43;101180.03;;;22.38;30.85
23433;BME280;41331;45.412;10.992;2023-04-28T11:06:19;101184.03;;;22.52;32.19
23433;BME280;41331;45.412;10.992;2023-04-28T11:08:55;101183.97;;;22.30;30.83
23433;BME280;41331;45.412;10.992;2023-04-28T11:11:25;101182.06;;;22.63;31.50
23433;BME280;41331;45.412;10.992;2023-04-28T11:14:40;101181.78;;;22.96;29.81
23433;BME280;41331;45.412;10.992;2023-04-28T11:19:21;101195.91;;;22.45;30.18
23433;BME280;41331;45.412;10.992;2023-04-28T11:21:50;101191.56;;;22.58;31.67
23433;BME280;41331;45.412;10.992;2023-04-28T11:24:18;101181.78;;;23.21;32.34
23433;BME280;41331;45.412;10.992;2023-04-28T11:26:46;101184.56;;;23.07;32.45
23433;BME280;41331;45.412;10.992;2023-04-28T11:29:13;101181.78;;;23.11;32.32
23433;BME280;41331;45.412;10.992;2023-04-28T11:31:48;101183.38;;;23.19;33.07
23433;BME280;41331;45.412;10.992;2023-04-28T11:34:19;101173.06;;;23.30;31.83
23433;BME280;41331;45.412;10.992;2023-04-28T11:36:47;101172.25;;;23.33;31.65
23433;BME280;41331;45.412;10.992;2023-04-28T11:39:15;101166.31;;;23.13;30.93
23433;BME280;41331;45.412;10.992;2023-04-28T11:41:43;101176.22;;;23.14;32.82
23433;BME280;41331;45.412;10.992;2023-04-28T11:46:52;101167.88;;;23.57;33.06
23433;BME280;41331;45.412;10.992;2023-04-28T11:49:23;101157.97;;;23.38;32.63
23433;BME280;41331;45.412;10.992;2023-04-28T11:51:51;101159.16;;;23.41;32.86
23433;BME280;41331;45.412;10.992;2023-04-28T11:54:22;101159.16;;;23.41;33.21
23433;BME280;41331;45.412;10.992;2023-04-28T11:56:51;101154.41;;;23.66;33.50
23433;BME280;41331;45.412;10.992;2023-04-28T11:59:29;101150.72;;;24.01;32.20
23433;BME280;41331;45.412;10.992;2023-04-28T12:02:01;101138.03;;;23.93;32.28
23433;BME280;41331;45.412;10.992;2023-04-28T12:04:30;101135.31;;;23.68;31.94
23433;BME280;41331;45.412;10.992;2023-04-28T12:07:05;101134.53;;;23.61;31.62
23433;BME280;41331;45.412;10.992;2023-04-28T12:09:33;101124.53;;;23.88;32.41
23433;BME280;41331;45.412;10.992;2023-04-28T12:12:07;101128.59;;;23.51;33.44
23433;BME280;41331;45.412;10.992;2023-04-28T12:17:28;101117.88;;;23.39;34.74
23433;BME280;41331;45.412;10.992;2023-04-28T12:19:57;101117.09;;;23.39;34.56
23433;BME280;41331;45.412;10.992;2023-04-28T12:22:25;101111.56;;;23.14;32.93
23433;BME280;41331;45.412;10.992;2023-04-28T12:25:10;101123.47;;;23.07;35.29
23433;BME280;41331;45.412;10.992;2023-04-28T12:27:39;101118.31;;;23.27;35.00
23433;BME280;41331;45.412;10.992;2023-04-28T12:32:47;101103.19;;;23.57;32.62
23433;BME280;41331;45.412;10.992;2023-04-28T12:35:14;101096.03;;;23.52;32.12
23433;BME280;41331;45.412;10.992;2023-04-28T12:37:43;101104.00;;;23.39;32.73
23433;BME280;41331;45.412;10.992;2023-04-28T12:40:10;101105.59;;;23.37;33.48
23433;BME280;41331;45.412;10.992;2023-04-28T12:42:38;101092.06;;;23.64;34.40
23433;BME280;41331;45.412;10.992;2023-04-28T12:45:06;101097.28;;;23.33;32.92
23433;BME280;41331;45.412;10.992;2023-04-28T12:47:35;101086.56;;;22.57;33.55
23433;BME280;41331;45.412;10.992;2023-04-28T12:50:05;101086.56;;;22.53;34.74
23433;BME280;41331;45.412;10.992;2023-04-28T12:52:33;101081.16;;;21.77;34.46
23433;BME280;41331;45.412;10.992;2023-04-28T12:55:02;101082.47;;;22.04;35.43
23433;BME280;41331;45.412;10.992;2023-04-28T12:57:32;101083.66;;;22.10;36.62
23433;BME280;41331;45.412;10.992;2023-04-28T13:00:06;101075.34;;;22.10;38.05
23433;BME280;41331;45.412;10.992;2023-04-28T13:02:34;101064.31;;;22.28;36.17
23433;BME280;41331;45.412;10.992;2023-04-28T13:05:02;101063.22;;;22.90;35.23
23433;BME280;41331;45.412;10.992;2023-04-28T13:07:30;101059.94;;;23.48;36.18
23433;BME280;41331;45.412;10.992;2023-04-28T13:09:58;101053.09;;;23.85;35.65
23433;BME280;41331;45.412;10.992;2023-04-28T13:12:25;101055.09;;;23.85;33.01
23433;BME280;41331;45.412;10.992;2023-04-28T13:14:53;101044.06;;;23.52;33.85
23433;BME280;41331;45.412;10.992;2023-04-28T13:17:20;101040.66;;;24.04;34.22